Climatologie pour Saint-Brevin les Pins
Jour • Résumé pour mai 20, 2017 Système :  Métrique    Anglais   Mixte
« - 1 jour
+ 1 jour »
Jour Semaine Mois Année Personnalisé
  Maximum : Minimum : Moyenne :
Température sous abri : -17.8 °C -13 °C -10.4 °C
Point de rosée : -17.8 °C -13.4 °C -12.3 °C
Humidité : Humidity % 66 % 80 %
Vitesse du vent : 0 km/h 0 km/h 8.7 km/h
Rafale : 0 km/h - -
Direction :- - West
Pression : 0 hPa 34476.3 hPa -
Précipitations : 7.62 mm    
Historical Graphs
 
 
Tableau de données pour mai 20, 2017
Heure Tempé Pt rosée Pression Vent Vitesse Rafale Humidité Taux pluie (/hr) Soleil
-17.8 °C -17.8 °C 0 hPa Calm     Humidity % 0 mm SolarRadiationWatts/m^2 W/m2 Conditions
00:00 -11.2 °C -12.6 °C 34476.3 hPa WNW 23.3 km/h 25.9 km/h 85 % 0 mm 0 W/m2
00:10 -11.2 °C -12.7 °C 34476.3 hPa WNW 20.8 km/h 25.9 km/h 84 % 0 mm 0 W/m2
00:15 -11.2 °C -12.7 °C 34476.3 hPa WNW 7.7 km/h 28.5 km/h 83 % 0 mm 0 W/m2
00:20 -11.1 °C -12.7 °C 34476.3 hPa West 7.7 km/h 28.5 km/h 83 % 0 mm 0 W/m2
00:25 -11.1 °C -12.7 °C 34476.3 hPa West 15.6 km/h 31.1 km/h 83 % 0 mm 0 W/m2
00:30 -11.2 °C -12.7 °C 34476.3 hPa West 12.9 km/h 31.1 km/h 83 % 0 mm 0 W/m2
00:35 -11.2 °C -12.7 °C 34476.3 hPa NW 20.8 km/h 28.5 km/h 83 % 0 mm 0 W/m2
00:40 -11.2 °C -12.8 °C 34476.3 hPa WNW 10.3 km/h 31.1 km/h 82 % 0 mm 0 W/m2
00:45 -11.2 °C -12.8 °C 34476.3 hPa WNW 15.6 km/h 31.1 km/h 82 % 0 mm 0 W/m2
00:50 -11.2 °C -12.9 °C 34476.3 hPa West 5.1 km/h 31.1 km/h 82 % 0 mm 0 W/m2
00:55 -11.3 °C -12.8 °C 34476.3 hPa WNW 5.1 km/h 25.9 km/h 83 % 0 mm 0 W/m2
01:00 -11.2 °C -12.8 °C 34476.3 hPa WNW 12.9 km/h 31.1 km/h 83 % 0 mm 0 W/m2
01:05 -11.2 °C -12.9 °C 34476.3 hPa WNW 7.7 km/h 31.1 km/h 82 % 0 mm 0 W/m2
01:10 -11.3 °C -13 °C 34476.3 hPa West 10.3 km/h 25.9 km/h 82 % 0 mm 0 W/m2
01:15 -11.5 °C -13.3 °C 34476.3 hPa WNW 5.1 km/h 18.2 km/h 80 % 0 mm 0 W/m2
01:20 -11.5 °C -13.3 °C 34476.3 hPa Calm   20.8 km/h 81 % 0 mm 0 W/m2
01:25 -11.6 °C -13.2 °C 34476.3 hPa WNW 10.3 km/h 20.8 km/h 83 % 0 mm 0 W/m2
01:30 -11.7 °C -13.2 °C 34476.3 hPa Calm   20.8 km/h 84 % 0 mm 0 W/m2
01:35 -11.8 °C -13.1 °C 34476.3 hPa WNW 12.9 km/h 15.6 km/h 86 % 0 mm 0 W/m2
01:40 -11.8 °C -13.1 °C 34486.4 hPa WNW 15.6 km/h 20.8 km/h 86 % 0 mm 0 W/m2
01:45 -11.9 °C -13.1 °C 34476.3 hPa WNW 2.6 km/h 20.8 km/h 87 % 0 mm 0 W/m2
01:50 -11.8 °C -12.9 °C 34476.3 hPa WNW 12.9 km/h 23.3 km/h 87 % 0 mm 0 W/m2
01:55 -11.7 °C -12.9 °C 34476.3 hPa West 5.1 km/h 23.3 km/h 87 % 0 mm 0 W/m2
02:00 -11.8 °C -12.9 °C 34486.4 hPa WNW 10.3 km/h 23.3 km/h 87 % 0 mm 0 W/m2
02:05 -11.6 °C -12.7 °C 34486.4 hPa Calm   23.3 km/h 88 % 0 mm 0 W/m2
02:10 -11.6 °C -12.7 °C 34486.4 hPa WNW 7.7 km/h 23.3 km/h 87 % 0 mm 0 W/m2
02:15 -11.6 °C -12.7 °C 34486.4 hPa WNW 2.6 km/h 15.6 km/h 87 % 0 mm 0 W/m2
02:20 -11.6 °C -12.7 °C 34486.4 hPa WNW 7.7 km/h 18.2 km/h 88 % 0 mm 0 W/m2
02:25 -11.6 °C -12.6 °C 34486.4 hPa Calm   23.3 km/h 88 % 0 mm 0 W/m2
02:30 -11.6 °C -12.6 °C 34486.4 hPa WNW 12.9 km/h 23.3 km/h 88 % 0 mm 0 W/m2
02:35 -11.6 °C -12.7 °C 34486.4 hPa West 7.7 km/h 20.8 km/h 87 % 0 mm 0 W/m2
02:40 -11.6 °C -12.8 °C 34486.4 hPa WNW 5.1 km/h 20.8 km/h 87 % 0 mm 0 W/m2
02:45 -11.7 °C -12.8 °C 34486.4 hPa WNW 7.7 km/h 20.8 km/h 87 % 0 mm 0 W/m2
02:50 -11.6 °C -12.8 °C 34476.3 hPa West 5.1 km/h 15.6 km/h 87 % 0 mm 0 W/m2
02:55 -11.7 °C -12.7 °C 34486.4 hPa WNW 2.6 km/h 15.6 km/h 88 % 0 mm 0 W/m2
03:00 -11.7 °C -12.8 °C 34476.3 hPa Calm   15.6 km/h 87 % 0 mm 0 W/m2
03:05 -11.7 °C -12.8 °C 34486.4 hPa Calm   15.6 km/h 87 % 0 mm 0 W/m2
03:10 -11.9 °C -13 °C 34476.3 hPa Calm   15.6 km/h 88 % 0 mm 0 W/m2
03:15 -12.1 °C -13.1 °C 34476.3 hPa WNW 5.1 km/h 10.3 km/h 89 % 0 mm 0 W/m2
03:20 -12.2 °C -13.1 °C 34476.3 hPa WNW 2.6 km/h 18.2 km/h 90 % 0 mm 0 W/m2
03:25 -12.3 °C -13.1 °C 34476.3 hPa Calm   18.2 km/h 91 % 0 mm 0 W/m2
03:30 -12.3 °C -13.1 °C 34476.3 hPa WNW 2.6 km/h 12.9 km/h 91 % 0 mm 0 W/m2
03:35 -12.3 °C -13.1 °C 34476.3 hPa WNW 5.1 km/h 12.9 km/h 91 % 0 mm 0 W/m2
03:40 -12.3 °C -13.1 °C 34476.3 hPa Calm   10.3 km/h 91 % 0 mm 0 W/m2
03:45 -12.3 °C -12.9 °C 34486.4 hPa Calm   7.7 km/h 92 % 0 mm 0 W/m2
03:50 -12.3 °C -12.9 °C 34476.3 hPa Calm   10.3 km/h 92 % 0 mm 0 W/m2
03:55 -12.2 °C -12.8 °C 34476.3 hPa WNW 7.7 km/h 12.9 km/h 93 % 0 mm 0 W/m2
04:00 -12.2 °C -12.9 °C 34476.3 hPa WNW 7.7 km/h 12.9 km/h 92 % 0 mm 0 W/m2
04:05 -12.2 °C -12.9 °C 34476.3 hPa Calm   7.7 km/h 92 % 0 mm 0 W/m2
04:10 -12.1 °C -12.8 °C 34476.3 hPa NW 20.8 km/h 28.5 km/h 92 % 0 mm 0 W/m2
04:15 -12.1 °C -12.8 °C 34476.3 hPa NW 5.1 km/h 28.5 km/h 91 % 0 mm 0 W/m2
04:20 -12.1 °C -13 °C 34486.4 hPa NW 5.1 km/h 25.9 km/h 89 % 0 mm 0 W/m2
04:25 -12.2 °C -13.1 °C 34486.4 hPa Calm   15.6 km/h 89 % 0 mm 0 W/m2
04:30 -12.2 °C -13.1 °C 34486.4 hPa Calm   20.8 km/h 90 % 0 mm 0 W/m2
04:35 -12.3 °C -13.1 °C 34486.4 hPa Calm   20.8 km/h 90 % 0 mm 0 W/m2
04:40 -12.3 °C -13.1 °C 34486.4 hPa Calm   10.3 km/h 91 % 0 mm 0 W/m2
04:45 -12.3 °C -13.1 °C 34486.4 hPa Calm   7.7 km/h 91 % 0 mm 0 W/m2
04:50 -12.4 °C -13.2 °C 34486.4 hPa Calm   7.7 km/h 91 % 0 mm 0 W/m2
04:55 -12.4 °C -13.1 °C 34486.4 hPa Calm   2.6 km/h 92 % 0 mm 0 W/m2
05:00 -12.3 °C -13.1 °C 34486.4 hPa Calm   2.6 km/h 92 % 0 mm 0 W/m2
05:05 -12.3 °C -13.1 °C 34486.4 hPa Calm     92 % 0 mm 0 W/m2
05:10 -12.3 °C -12.9 °C 34486.4 hPa Calm     93 % 0 mm 0 W/m2
05:20 -12.2 °C -12.8 °C 34486.4 hPa NW 2.6 km/h 23.3 km/h 93 % 7.62 mm 0 W/m2
05:25 -12.3 °C -12.8 °C 34486.4 hPa Calm   23.3 km/h 93 % 7.62 mm 0 W/m2
05:30 -12.3 °C -12.9 °C 34486.4 hPa Calm   7.7 km/h 93 % 7.62 mm 0 W/m2
05:35 -12.4 °C -12.9 °C 34486.4 hPa Calm   7.7 km/h 94 % 7.62 mm 0 W/m2
05:40 -12.4 °C -12.9 °C 34486.4 hPa Calm   2.6 km/h 94 % 7.62 mm 0 W/m2
05:45 -12.4 °C -12.9 °C 34486.4 hPa Calm     94 % 7.62 mm 0 W/m2
05:50 -12.4 °C -12.9 °C 34486.4 hPa Calm     94 % 7.62 mm 0 W/m2
05:55 -12.4 °C -13 °C 34486.4 hPa Calm     94 % 7.62 mm 0 W/m2
06:00 -12.6 °C -12.9 °C 34486.4 hPa Calm     95 % 7.62 mm 0 W/m2
06:05 -12.6 °C -13 °C 34486.4 hPa Calm     95 % 7.62 mm 0 W/m2
06:10 -12.6 °C -13 °C 34486.4 hPa Calm   2.6 km/h 95 % 0 mm 0 W/m2
06:15 -12.6 °C -13 °C 34486.4 hPa Calm   2.6 km/h 95 % 0 mm 0 W/m2
06:20 -12.6 °C -13.1 °C 34486.4 hPa Calm     95 % 0 mm 0 W/m2
06:25 -12.7 °C -13.1 °C 34486.4 hPa NW 2.6 km/h 2.6 km/h 95 % 0 mm 0 W/m2
06:30 -12.7 °C -13 °C 34486.4 hPa Calm   2.6 km/h 96 % 0 mm 0 W/m2
06:35 -12.8 °C -13.2 °C 34486.4 hPa Calm   5.1 km/h 95 % 0 mm 5 W/m2
06:40 -12.9 °C -13.3 °C 34496.6 hPa Calm   5.1 km/h 95 % 0 mm 7 W/m2
06:45 -12.9 °C -13.3 °C 34496.6 hPa Calm   5.1 km/h 95 % 0 mm 9 W/m2
06:50 -12.9 °C -13.4 °C 34496.6 hPa Calm   5.1 km/h 95 % 0 mm 11 W/m2
06:55 -12.9 °C -13.3 °C 34496.6 hPa Calm     96 % 0 mm 14 W/m2
07:00 -13 °C -13.3 °C 34510.1 hPa Calm     96 % 0 mm 18 W/m2
07:05 -13 °C -13.3 °C 34510.1 hPa Calm   2.6 km/h 96 % 0 mm 23 W/m2
07:10 -13 °C -13.3 °C 34510.1 hPa Calm   2.6 km/h 96 % 0 mm 25 W/m2
07:15 -13 °C -13.3 °C 34510.1 hPa Calm     96 % 0 mm 25 W/m2
07:20 -13 °C -13.3 °C 34520.3 hPa Calm     96 % 0 mm 32 W/m2
07:25 -12.9 °C -13.3 °C 34520.3 hPa Calm     96 % 0 mm 32 W/m2
07:30 -12.9 °C -13.3 °C 34520.3 hPa Calm     96 % 0 mm 32 W/m2
07:35 -12.9 °C -13.2 °C 34520.3 hPa Calm     96 % 0 mm 28 W/m2
07:40 -12.8 °C -13.2 °C 34520.3 hPa Calm     96 % 0 mm 33 W/m2
07:45 -12.8 °C -13.1 °C 34520.3 hPa Calm     97 % 0 mm 35 W/m2
07:55 -12.4 °C -12.6 °C 34533.8 hPa Calm     97 % 0 mm 69 W/m2
08:05 -11.9 °C -12.1 °C 34533.8 hPa Calm     97 % 0 mm 181 W/m2
08:10 -11.6 °C -11.9 °C 34533.8 hPa Calm     96 % 0 mm 258 W/m2
08:15 -11.3 °C -11.7 °C 34533.8 hPa WNW 2.6 km/h 7.7 km/h 95 % 0 mm 70 W/m2
08:20 -11.3 °C -11.9 °C 34533.8 hPa Calm   10.3 km/h 94 % 0 mm 97 W/m2
08:25 -11.3 °C -11.8 °C 34533.8 hPa WNW 5.1 km/h 12.9 km/h 94 % 0 mm 151 W/m2
08:30 -11.3 °C -11.9 °C 34533.8 hPa Calm   12.9 km/h 93 % 0 mm 167 W/m2
08:35 -11.2 °C -11.9 °C 34533.8 hPa Calm   7.7 km/h 91 % 0 mm 141 W/m2
08:40 -11 °C -11.9 °C 34544 hPa Calm   7.7 km/h 90 % 0 mm 132 W/m2
08:45 -10.9 °C -11.8 °C 34544 hPa Calm   7.7 km/h 90 % 0 mm 141 W/m2
08:50 -10.9 °C -11.8 °C 34544 hPa Calm   7.7 km/h 90 % 0 mm 179 W/m2
08:55 -10.8 °C -11.7 °C 34544 hPa Calm   7.7 km/h 90 % 0 mm 285 W/m2
09:00 -10.7 °C -11.8 °C 34554.1 hPa Calm   5.1 km/h 88 % 0 mm 153 W/m2
09:05 -10.8 °C -12 °C 34554.1 hPa West 5.1 km/h 10.3 km/h 87 % 0 mm 132 W/m2
09:10 -10.8 °C -11.9 °C 34554.1 hPa Calm   10.3 km/h 88 % 0 mm 160 W/m2
09:15 -10.6 °C -11.8 °C 34554.1 hPa West 5.1 km/h 7.7 km/h 86 % 0 mm 457 W/m2
09:20 -10.2 °C -11.6 °C 34554.1 hPa WNW 2.6 km/h 10.3 km/h 85 % 0 mm 468 W/m2
09:25 -10.3 °C -11.9 °C 34554.1 hPa WNW 5.1 km/h 15.6 km/h 83 % 0 mm 322 W/m2
09:30 -10.4 °C -12.1 °C 34554.1 hPa West 7.7 km/h 15.6 km/h 82 % 0 mm 494 W/m2
09:35 -10.3 °C -12.1 °C 34554.1 hPa Calm   12.9 km/h 81 % 0 mm 513 W/m2
09:40 -10 °C -11.7 °C 34567.7 hPa West 12.9 km/h 15.6 km/h 82 % 0 mm 524 W/m2
09:45 -10.1 °C -11.9 °C 34567.7 hPa SW 7.7 km/h 15.6 km/h 80 % 0 mm 232 W/m2
09:50 -9.9 °C -11.9 °C 34567.7 hPa WSW 2.6 km/h 15.6 km/h 79 % 0 mm 533 W/m2
09:55 -10 °C -12.1 °C 34567.7 hPa West 10.3 km/h 18.2 km/h 78 % 0 mm 545 W/m2
10:00 -10.1 °C -12 °C 34567.7 hPa WSW 5.1 km/h 18.2 km/h 79 % 0 mm 563 W/m2
10:05 -9.7 °C -11.5 °C 34577.8 hPa West 10.3 km/h 20.8 km/h 81 % 0 mm 573 W/m2
10:10 -9.8 °C -12 °C 34577.8 hPa WSW 10.3 km/h 23.3 km/h 77 % 0 mm 582 W/m2
10:15 -9.8 °C -11.9 °C 34577.8 hPa West 10.3 km/h 23.3 km/h 78 % 0 mm 594 W/m2
10:20 -9.8 °C -11.9 °C 34577.8 hPa WSW 15.6 km/h 23.3 km/h 78 % 0 mm 606 W/m2
10:30 -9.7 °C -11.9 °C 34591.4 hPa South 2.6 km/h 23.3 km/h 77 % 0 mm 633 W/m2
10:35 -9.4 °C -11.8 °C 34591.4 hPa West 7.7 km/h 23.3 km/h 76 % 0 mm 652 W/m2
10:40 -9.5 °C -11.7 °C 34591.4 hPa NW 7.7 km/h 25.9 km/h 77 % 0 mm 666 W/m2
10:45 -9.4 °C -11.9 °C 34591.4 hPa WSW 10.3 km/h 28.5 km/h 74 % 0 mm 689 W/m2
10:50 -9.3 °C -11.9 °C 34591.4 hPa SW 20.8 km/h 28.5 km/h 74 % 0 mm 689 W/m2
10:55 -9.2 °C -11.4 °C 34591.4 hPa WSW 23.3 km/h 25.9 km/h 77 % 0 mm 696 W/m2
11:00 -9.5 °C -12.4 °C 34591.4 hPa WSW 10.3 km/h 25.9 km/h 71 % 0 mm 707 W/m2
11:05 -9.4 °C -12.1 °C 34591.4 hPa West 18.2 km/h 25.9 km/h 73 % 0 mm 719 W/m2
11:10 -9.1 °C -11.9 °C 34591.4 hPa West 18.2 km/h 25.9 km/h 72 % 0 mm 731 W/m2
11:15 -9.2 °C -12.1 °C 34591.4 hPa WSW 18.2 km/h 25.9 km/h 71 % 0 mm 742 W/m2
11:20 -9.2 °C -11.8 °C 34601.5 hPa West 23.3 km/h 31.1 km/h 73 % 0 mm 765 W/m2
11:25 -9.1 °C -11.7 °C 34601.5 hPa West 20.8 km/h 31.1 km/h 74 % 0 mm 772 W/m2
11:35 -9.1 °C -11.9 °C 34601.5 hPa SW 12.9 km/h 33.6 km/h 72 % 0 mm 868 W/m2
11:40 -8.9 °C -11.5 °C 34601.5 hPa SW 7.7 km/h 33.6 km/h 74 % 0 mm 993 W/m2
11:45 -9 °C -11.9 °C 34601.5 hPa SW 7.7 km/h 33.6 km/h 71 % 0 mm 332 W/m2
11:50 -9.3 °C -12 °C 34601.5 hPa NNW 2.6 km/h 33.6 km/h 73 % 0 mm 963 W/m2
11:55 -8.8 °C -11.4 °C 34601.5 hPa NW 15.6 km/h 31.1 km/h 73 % 0 mm 863 W/m2
12:00 -9 °C -11.9 °C 34601.5 hPa WNW 18.2 km/h 31.1 km/h 71 % 0 mm 868 W/m2
12:05 -8.9 °C -11.6 °C 34601.5 hPa West 7.7 km/h 31.1 km/h 73 % 0 mm 993 W/m2
12:10 -9.3 °C -12.5 °C 34601.5 hPa WNW 23.3 km/h 36.2 km/h 68 % 0 mm 568 W/m2
12:15 -9.4 °C -12.4 °C 34611.7 hPa West 7.7 km/h 36.2 km/h 70 % 0 mm 439 W/m2
12:20 -8.9 °C -12.2 °C 34611.7 hPa SW 20.8 km/h 28.5 km/h 68 % 0 mm 617 W/m2
12:25 -9.1 °C -12.1 °C 34611.7 hPa WSW 10.3 km/h 36.2 km/h 70 % 0 mm 735 W/m2
12:30 -9.1 °C -12.1 °C 34611.7 hPa West 28.5 km/h 36.2 km/h 70 % 0 mm 930 W/m2
12:40 -8.8 °C -11.9 °C 34611.7 hPa West 7.7 km/h 38.8 km/h 70 % 0 mm 881 W/m2
12:45 -8.8 °C -11.8 °C 34625.2 hPa WNW 12.9 km/h 31.1 km/h 70 % 0 mm 882 W/m2
12:50 -8.9 °C -11.6 °C 34611.7 hPa WNW 15.6 km/h 33.6 km/h 73 % 0 mm 886 W/m2
12:55 -8.7 °C -11.3 °C 34625.2 hPa WSW 23.3 km/h 33.6 km/h 74 % 0 mm 889 W/m2
13:00 -8.7 °C -11.4 °C 34625.2 hPa WNW 7.7 km/h 38.8 km/h 73 % 0 mm 900 W/m2
13:05 -8.8 °C -11.7 °C 34625.2 hPa SSW 20.8 km/h 38.8 km/h 71 % 0 mm 912 W/m2
13:10 -8.8 °C -11.6 °C 34625.2 hPa West 7.7 km/h 33.6 km/h 72 % 0 mm 926 W/m2
13:15 -8.7 °C -11.3 °C 34625.2 hPa WNW 15.6 km/h 33.6 km/h 74 % 0 mm 937 W/m2
13:20 -8.6 °C -10.5 °C 34625.2 hPa WSW 15.6 km/h 31.1 km/h 80 % 0 mm 970 W/m2
13:25 -8.6 °C -11.9 °C 34625.2 hPa West 20.8 km/h 36.2 km/h 67 % 0 mm 926 W/m2
13:30 -8.7 °C -11.9 °C 34625.2 hPa WSW 10.3 km/h 36.2 km/h 69 % 0 mm 918 W/m2
13:35 -8.8 °C -11.6 °C 34625.2 hPa WSW 15.6 km/h 31.1 km/h 72 % 0 mm 942 W/m2
13:40 -8.8 °C -11.6 °C 34625.2 hPa SW 15.6 km/h 38.8 km/h 72 % 0 mm 925 W/m2
13:45 -8.7 °C -11.7 °C 34635.4 hPa SW 10.3 km/h 38.8 km/h 71 % 0 mm 918 W/m2
13:50 -8.5 °C -11.1 °C 34635.4 hPa SW 20.8 km/h 36.2 km/h 74 % 0 mm 926 W/m2
13:55 -8.4 °C -11.3 °C 34635.4 hPa WNW 31.1 km/h 36.2 km/h 71 % 0 mm 993 W/m2
14:00 -8.7 °C -11.1 °C 34635.4 hPa West 10.3 km/h 36.2 km/h 75 % 0 mm 995 W/m2
14:05 -8.6 °C -11.2 °C 34635.4 hPa West 15.6 km/h 36.2 km/h 74 % 0 mm 234 W/m2
14:10 -9.2 °C -11.9 °C 34635.4 hPa WNW 10.3 km/h 36.2 km/h 73 % 0 mm 181 W/m2
14:15 -9.3 °C -11.8 °C 34635.4 hPa SW 10.3 km/h 33.6 km/h 74 % 0 mm 223 W/m2
14:20 -8.8 °C -11.3 °C 34635.4 hPa WNW 12.9 km/h 36.2 km/h 75 % 0 mm 1011 W/m2
14:25 -8.6 °C -11.4 °C 34635.4 hPa WNW 20.8 km/h 44.1 km/h 72 % 0 mm 1016 W/m2
14:30 -8.6 °C -11.6 °C 34635.4 hPa West 23.3 km/h 44.1 km/h 70 % 0 mm 940 W/m2
14:35 -8.6 °C -11.3 °C 34635.4 hPa WNW 10.3 km/h 36.2 km/h 73 % 0 mm 912 W/m2
14:40 -8.5 °C -11.6 °C 34635.4 hPa NW 5.1 km/h 33.6 km/h 70 % 0 mm 907 W/m2
14:45 -8.6 °C -12 °C 34635.4 hPa SW 18.2 km/h 38.8 km/h 67 % 0 mm 902 W/m2
14:50 -8.6 °C -11.4 °C 34645.6 hPa SW 23.3 km/h 38.8 km/h 72 % 0 mm 898 W/m2
14:55 -8.6 °C -12.1 °C 34635.4 hPa West 12.9 km/h 36.2 km/h 66 % 0 mm 895 W/m2
15:00 -8.4 °C -11.6 °C 34645.6 hPa WSW 23.3 km/h 31.1 km/h 69 % 0 mm 893 W/m2
15:05 -8.1 °C -11.5 °C 34645.6 hPa WSW 5.1 km/h 33.6 km/h 67 % 0 mm 884 W/m2
15:10 -8.5 °C -11.8 °C 34645.6 hPa WSW 20.8 km/h 36.2 km/h 68 % 0 mm 884 W/m2
15:15 -8.6 °C -11.6 °C 34645.6 hPa NW 23.3 km/h 36.2 km/h 70 % 0 mm 874 W/m2
15:20 -8.4 °C -11.6 °C 34645.6 hPa SW 10.3 km/h 41.4 km/h 69 % 0 mm 875 W/m2
15:25 -8.6 °C -11.5 °C 34645.6 hPa West 23.3 km/h 41.4 km/h 71 % 0 mm 867 W/m2
15:30 -8.4 °C -11.6 °C 34645.6 hPa WSW 25.9 km/h 36.2 km/h 69 % 0 mm 861 W/m2
15:35 -8.5 °C -11.4 °C 34659.1 hPa West 20.8 km/h 36.2 km/h 71 % 0 mm 853 W/m2
15:40 -8.2 °C -11.2 °C 34645.6 hPa SW 18.2 km/h 36.2 km/h 70 % 0 mm 844 W/m2
15:45 -8.2 °C -11.2 °C 34645.6 hPa WSW 15.6 km/h 36.2 km/h 71 % 0 mm 837 W/m2
15:50 -8.2 °C -11.6 °C 34645.6 hPa West 18.2 km/h 33.6 km/h 68 % 0 mm 759 W/m2
15:55 -8.3 °C -11.2 °C 34659.1 hPa WSW 28.5 km/h 38.8 km/h 71 % 0 mm 773 W/m2
16:00 -8.4 °C -12 °C 34659.1 hPa WNW 18.2 km/h 38.8 km/h 66 % 0 mm 747 W/m2
16:05 -8.6 °C -11.8 °C 34659.1 hPa South 12.9 km/h 38.8 km/h 69 % 0 mm 766 W/m2
16:10 -8.4 °C -11.3 °C 34659.1 hPa WNW 7.7 km/h 36.2 km/h 71 % 0 mm 809 W/m2
16:15 -8 °C -11.3 °C 34659.1 hPa West 31.1 km/h 36.2 km/h 68 % 0 mm 809 W/m2
16:20 -8.3 °C -11.5 °C 34659.1 hPa WSW 12.9 km/h 36.2 km/h 69 % 0 mm 821 W/m2
16:25 -8.3 °C -11.6 °C 34659.1 hPa West 15.6 km/h 33.6 km/h 68 % 0 mm 765 W/m2
16:30 -8.6 °C -12.1 °C 34659.1 hPa WSW 25.9 km/h 33.6 km/h 67 % 0 mm 742 W/m2
16:35 -8.5 °C -11.8 °C 34659.1 hPa West 5.1 km/h 36.2 km/h 68 % 0 mm 756 W/m2
16:40 -8.4 °C -11.4 °C 34659.1 hPa WSW 28.5 km/h 36.2 km/h 70 % 0 mm 679 W/m2
16:45 -8.4 °C -11.6 °C 34659.1 hPa West 15.6 km/h 33.6 km/h 69 % 0 mm 710 W/m2
16:50 -8.7 °C -11.7 °C 34659.1 hPa WSW 7.7 km/h 41.4 km/h 70 % 0 mm 694 W/m2
16:55 -8.8 °C -11.8 °C 34659.1 hPa SSW 18.2 km/h 41.4 km/h 70 % 0 mm 183 W/m2
17:00 -8.8 °C -11.8 °C 34659.1 hPa WSW 12.9 km/h 38.8 km/h 70 % 0 mm 664 W/m2
17:05 -8.6 °C -11.1 °C 34659.1 hPa WSW 25.9 km/h 38.8 km/h 75 % 0 mm 677 W/m2
17:10 -8.7 °C -11.4 °C 34659.1 hPa West 15.6 km/h 36.2 km/h 73 % 0 mm 680 W/m2
17:15 -8.5 °C -11.1 °C 34669.3 hPa WSW 23.3 km/h 36.2 km/h 74 % 0 mm 670 W/m2
17:20 -8.5 °C -11.4 °C 34669.3 hPa NW 7.7 km/h 33.6 km/h 71 % 0 mm 647 W/m2
17:25 -8.5 °C -11.4 °C 34669.3 hPa NW 18.2 km/h 36.2 km/h 71 % 0 mm 650 W/m2
17:30 -8.4 °C -11.4 °C 34669.3 hPa West 15.6 km/h 38.8 km/h 71 % 0 mm 633 W/m2
17:35 -8.7 °C -12.1 °C 34669.3 hPa West 15.6 km/h 38.8 km/h 67 % 0 mm 621 W/m2
17:40 -8.7 °C -11.7 °C 34669.3 hPa WNW 15.6 km/h 33.6 km/h 70 % 0 mm 615 W/m2
17:45 -8.6 °C -11.7 °C 34669.3 hPa WNW 12.9 km/h 31.1 km/h 70 % 0 mm 589 W/m2
17:50 -8.7 °C -11.8 °C 34669.3 hPa West 20.8 km/h 38.8 km/h 69 % 0 mm 580 W/m2
17:55 -8.7 °C -12.2 °C 34669.3 hPa West 23.3 km/h 38.8 km/h 67 % 0 mm 561 W/m2
18:00 -8.8 °C -11.9 °C 34669.3 hPa West 33.6 km/h 33.6 km/h 70 % 0 mm 534 W/m2
18:05 -8.7 °C -11.5 °C 34669.3 hPa SW 10.3 km/h 33.6 km/h 72 % 0 mm 489 W/m2
18:10 -8.8 °C -11.9 °C 34669.3 hPa WSW 10.3 km/h 36.2 km/h 69 % 0 mm 524 W/m2
18:15 -8.7 °C -11.7 °C 34669.3 hPa WNW 7.7 km/h 36.2 km/h 71 % 0 mm 513 W/m2
18:20 -8.6 °C -11.7 °C 34669.3 hPa SW 12.9 km/h 28.5 km/h 70 % 0 mm 497 W/m2
18:25 -8.7 °C -11.6 °C 34669.3 hPa West 33.6 km/h 33.6 km/h 71 % 0 mm 480 W/m2
18:30 -8.9 °C -12 °C 34669.3 hPa WNW 10.3 km/h 33.6 km/h 70 % 0 mm 464 W/m2
18:35 -8.9 °C -11.6 °C 34669.3 hPa WNW 10.3 km/h 33.6 km/h 73 % 0 mm 446 W/m2
18:40 -8.8 °C -11.8 °C 34669.3 hPa WNW 10.3 km/h 25.9 km/h 71 % 0 mm 439 W/m2
18:45 -9 °C -11.8 °C 34669.3 hPa WNW 10.3 km/h 28.5 km/h 72 % 0 mm 424 W/m2
18:50 -9 °C -11.8 °C 34669.3 hPa West 12.9 km/h 28.5 km/h 72 % 0 mm 383 W/m2
18:55 -9 °C -11.7 °C 34669.3 hPa WNW 10.3 km/h 36.2 km/h 73 % 0 mm 385 W/m2
19:00 -9 °C -11.8 °C 34669.3 hPa WSW 7.7 km/h 36.2 km/h 72 % 0 mm 292 W/m2
19:05 -9.2 °C -12 °C 34669.3 hPa WSW 23.3 km/h 25.9 km/h 72 % 0 mm 348 W/m2
19:10 -9.2 °C -11.7 °C 34669.3 hPa West 20.8 km/h 28.5 km/h 74 % 0 mm 336 W/m2
19:15 -9.1 °C -11.8 °C 34669.3 hPa WSW 5.1 km/h 28.5 km/h 73 % 0 mm 290 W/m2
19:20 -9 °C -11.6 °C 34669.3 hPa NNW 7.7 km/h 25.9 km/h 74 % 0 mm 299 W/m2
19:25 -9.1 °C -12.1 °C 34669.3 hPa WSW 7.7 km/h 31.1 km/h 71 % 0 mm 292 W/m2
19:30 -9.2 °C -12 °C 34669.3 hPa WSW 7.7 km/h 31.1 km/h 72 % 0 mm 287 W/m2
19:35 -9.3 °C -11.9 °C 34669.3 hPa West 10.3 km/h 31.1 km/h 73 % 0 mm 272 W/m2
19:40 -9.3 °C -12.1 °C 34669.3 hPa WSW 5.1 km/h 33.6 km/h 72 % 0 mm 253 W/m2
19:45 -9.3 °C -11.9 °C 34669.3 hPa WSW 23.3 km/h 33.6 km/h 73 % 0 mm 229 W/m2
19:55 -9.4 °C -12.1 °C 34682.8 hPa SW 10.3 km/h 28.5 km/h 73 % 0 mm 146 W/m2
20:00 -9.4 °C -12 °C 34682.8 hPa SW 18.2 km/h 28.5 km/h 74 % 0 mm 90 W/m2
20:05 -9.6 °C -12.2 °C 34682.8 hPa SSW 7.7 km/h 23.3 km/h 73 % 0 mm 109 W/m2
20:10 -9.6 °C -12.2 °C 34682.8 hPa SW 7.7 km/h 23.3 km/h 74 % 0 mm 109 W/m2
20:15 -9.7 °C -12.2 °C 34682.8 hPa WSW 18.2 km/h 23.3 km/h 74 % 0 mm 97 W/m2
20:20 -9.8 °C -12.3 °C 34682.8 hPa WSW 5.1 km/h 23.3 km/h 74 % 0 mm 84 W/m2
20:25 -9.8 °C -12.2 °C 34682.8 hPa WSW 5.1 km/h 20.8 km/h 75 % 0 mm 70 W/m2
20:30 -9.9 °C -12.2 °C 34682.8 hPa West 15.6 km/h 20.8 km/h 76 % 0 mm 54 W/m2
20:35 -9.9 °C -12.3 °C 34682.8 hPa West 15.6 km/h 20.8 km/h 75 % 0 mm 49 W/m2
20:40 -9.9 °C -12.2 °C 34682.8 hPa WSW 7.7 km/h 20.8 km/h 76 % 0 mm 44 W/m2
20:45 -9.9 °C -12.4 °C 34682.8 hPa WSW 10.3 km/h 20.8 km/h 75 % 0 mm 39 W/m2
20:50 -10.1 °C -12.3 °C 34682.8 hPa WSW 12.9 km/h 18.2 km/h 76 % 0 mm 35 W/m2
20:55 -10.1 °C -12.3 °C 34682.8 hPa West 10.3 km/h 12.9 km/h 77 % 0 mm 40 W/m2
21:00 -10.1 °C -12.3 °C 34682.8 hPa Calm   12.9 km/h 77 % 0 mm 42 W/m2
21:05 -10.1 °C -12.2 °C 34682.8 hPa WSW 15.6 km/h 15.6 km/h 77 % 0 mm 35 W/m2
21:10 -10.1 °C -12.3 °C 34682.8 hPa WSW 15.6 km/h 18.2 km/h 76 % 0 mm 32 W/m2
21:15 -10.1 °C -12.2 °C 34682.8 hPa WSW 10.3 km/h 18.2 km/h 77 % 0 mm 26 W/m2
21:20 -10.1 °C -12.2 °C 34682.8 hPa West 2.6 km/h 23.3 km/h 77 % 0 mm 18 W/m2
21:25 -10.1 °C -12.3 °C 34682.8 hPa WSW 7.7 km/h 23.3 km/h 77 % 0 mm 12 W/m2
21:30 -10.1 °C -12.2 °C 34682.8 hPa WSW 2.6 km/h 15.6 km/h 78 % 0 mm 9 W/m2
21:35 -10.2 °C -12.4 °C 34682.8 hPa SW 7.7 km/h 15.6 km/h 77 % 0 mm 7 W/m2
21:40 -10.3 °C -12.4 °C 34693 hPa SW 7.7 km/h 18.2 km/h 78 % 0 mm 5 W/m2
21:45 -10.4 °C -12.4 °C 34693 hPa SW 5.1 km/h 18.2 km/h 78 % 0 mm 0 W/m2
21:50 -10.4 °C -12.4 °C 34693 hPa SSW 12.9 km/h 18.2 km/h 79 % 0 mm 0 W/m2
21:55 -10.4 °C -12.5 °C 34682.8 hPa WSW 2.6 km/h 18.2 km/h 78 % 0 mm 0 W/m2
22:00 -10.5 °C -12.5 °C 34693 hPa Calm   15.6 km/h 79 % 0 mm 0 W/m2
22:05 -10.7 °C -12.6 °C 34693 hPa WSW 5.1 km/h 10.3 km/h 79 % 0 mm 0 W/m2
22:10 -10.7 °C -12.6 °C 34693 hPa Calm   10.3 km/h 80 % 0 mm 0 W/m2
22:15 -10.8 °C -12.6 °C 34693 hPa SW 2.6 km/h 12.9 km/h 81 % 0 mm 0 W/m2
22:20 -10.9 °C -12.6 °C 34693 hPa Calm   12.9 km/h 82 % 0 mm 0 W/m2
22:25 -10.9 °C -12.5 °C 34693 hPa Calm   10.3 km/h 83 % 0 mm 0 W/m2
22:30 -11.1 °C -12.6 °C 34693 hPa SSW 5.1 km/h 10.3 km/h 84 % 0 mm 0 W/m2
22:35 -11.2 °C -12.5 °C 34693 hPa Calm   5.1 km/h 85 % 0 mm 0 W/m2
22:40 -11 °C -12.4 °C 34693 hPa Calm   5.1 km/h 85 % 0 mm 0 W/m2
22:45 -11.1 °C -12.5 °C 34703.1 hPa SW 2.6 km/h 7.7 km/h 84 % 0 mm 0 W/m2
22:50 -11.2 °C -12.6 °C 34703.1 hPa Calm   10.3 km/h 85 % 0 mm 0 W/m2
22:55 -11.1 °C -12.4 °C 34703.1 hPa Calm   10.3 km/h 86 % 0 mm 0 W/m2
23:00 -11.1 °C -12.4 °C 34703.1 hPa SSW 5.1 km/h 12.9 km/h 85 % 0 mm 0 W/m2
23:05 -11.1 °C -12.4 °C 34703.1 hPa Calm   12.9 km/h 85 % 0 mm 0 W/m2
23:10 -11.1 °C -12.4 °C 34703.1 hPa Calm   10.3 km/h 85 % 0 mm 0 W/m2
23:15 -11.2 °C -12.5 °C 34703.1 hPa SSE 2.6 km/h 7.7 km/h 85 % 0 mm 0 W/m2
23:20 -11.2 °C -12.5 °C 34703.1 hPa Calm   7.7 km/h 86 % 0 mm 0 W/m2
23:25 -11.5 °C -12.7 °C 34703.1 hPa Calm   5.1 km/h 86 % 0 mm 0 W/m2
23:30 -11.7 °C -12.7 °C 34703.1 hPa Calm   2.6 km/h 88 % 0 mm 0 W/m2
23:35 -11.8 °C -12.9 °C 34703.1 hPa Calm   2.6 km/h 88 % 0 mm 0 W/m2
23:40 -11.9 °C -12.9 °C 34703.1 hPa SSE 2.6 km/h 2.6 km/h 89 % 0 mm 0 W/m2
23:45 -12.1 °C -12.9 °C 34703.1 hPa Calm   2.6 km/h 90 % 0 mm 0 W/m2
23:50 -12.1 °C -13 °C 34703.1 hPa Calm     90 % 0 mm 0 W/m2
23:55 -12.2 °C -12.9 °C 34703.1 hPa Calm     91 % 0 mm 0 W/m2
Avec l'autorisation de Weather Underground - 1.75 mb